Bridgman, MI (49106)

7:28 AM EDT on April 29, 2017 (GMT -0400)
Near Bridgman H.S. | | Change Station
Active Advisory: Flash Flood Watch Active Notice: Flash Flood Watch

Elev 676 ft 41.94 °N, 86.55 °W | Updated 8 seconds ago

Overcast
Overcast
47.5 °F
Feels Like 48 °F
N
2.2
Wind Variable Wind from SSE

Today
High -- | Low -- °F
--% Chance of Precip.
Yesterday
High -- | Low -- °F
Precip. -- in
Pressure 30.10 in
Visibility 10.0 miles
Clouds Clear
Windchill 48 °F
Dew Point 44 °F
Humidity 86%
Rainfall 0.00 in
Snow Depth Not available.
6:44 AM 8:43 PM
Waxing Crescent, 13% visible
METAR KBEH 291053Z AUTO 05005KT 10SM CLR 08/05 A3010 RMK AO2 SLP193 T00830050
Pressure 30.10 in
Visibility 10.0 miles
Clouds Clear
Windchill 48 °F
Dew Point 44 °F
Humidity 86%
Rainfall 0.00 in
Snow Depth Not available.
6:44 AM 8:43 PM
Waxing Crescent, 13% visible
METAR KBEH 291053Z AUTO 05005KT 10SM CLR 08/05 A3010 RMK AO2 SLP193 T00830050

Get Your Daily Forecast Email!

Thanks for signing up!

Be on the lookout for a verification email in your inbox.

You'll start receiving severe weather alerts in your inbox..

×

10-Day Weather Forecast

Almanac

Astronomy

Apr. 29, 2017 Rise Set
Actual Time
Civil Twilight
Nautical Twilight
Astronomical Twilight
Moon
Length of Visible Light
Length of Day
Tomorrow will be .
, % of the Moon is Illuminated

Today's Extremes

State Highs State Lows

Community

WunderPhotos

WunderBlog® & News

Nearby

Air Quality

  Air Quality AQ Index Pollutant
Not available.

Snow Depth

Station Depth Elevation

Earthquake Activity

City Distance Mag. Time & Date
Minimum magnitude displayed is 2.5.

Coastal Water Temperatures

Place Temperature

Stations

Nearby Weather Stations

Station Location Temp. Windchill Dew Point Humidity Wind Precip. Elev Updated Type
                   

Watches & Warnings

Flash Flood Watch
Issued: 3:16 AM CDT Apr. 29, 2017 – National Weather Service

... Flash Flood Watch now in effect from this evening through
Monday morning...

The Flash Flood Watch continues for

* portions of northern Indiana and southwest Michigan, including
the following areas, in northern Indiana, La Porte, St. Joseph in,
and Starke. In southwest Michigan, Berrien and Cass mi.

* From this evening through Monday morning

* periods of heavy rainfall are expected tonight through Sunday
night. Two to four inches of rain is forecast during this time.

* In addition to potential flooding of streets and roads in
flood prone areas, area rivers and streams are also likely to
experience flooding. This would persist for several days after
the rain ends.

Precautionary/preparedness actions...

A Flash Flood Watch means that conditions may develop that lead
to flash flooding. Flash flooding is a very dangerous situation.

You should monitor later forecasts and be prepared to take action
should flash flood warnings be issued.